sensor_id;sensor_type;location;lat;lon;timestamp;P1;durP1;ratioP1;P2;durP2;ratioP2
52894;SDS011;38759;53.396;6.722;2023-08-20T00:02:24;8.98;;;3.45;;
52894;SDS011;38759;53.396;6.722;2023-08-20T00:04:51;6.72;;;3.22;;
52894;SDS011;38759;53.396;6.722;2023-08-20T00:07:20;8.93;;;3.47;;
52894;SDS011;38759;53.396;6.722;2023-08-20T00:09:46;6.38;;;2.75;;
52894;SDS011;38759;53.396;6.722;2023-08-20T00:12:12;10.65;;;3.28;;
52894;SDS011;38759;53.396;6.722;2023-08-20T00:17:32;11.20;;;3.50;;
52894;SDS011;38759;53.396;6.722;2023-08-20T00:20:00;8.50;;;3.92;;
52894;SDS011;38759;53.396;6.722;2023-08-20T00:22:26;13.15;;;3.70;;
52894;SDS011;38759;53.396;6.722;2023-08-20T00:24:53;9.38;;;3.10;;
52894;SDS011;38759;53.396;6.722;2023-08-20T00:27:19;9.65;;;3.22;;
52894;SDS011;38759;53.396;6.722;2023-08-20T00:29:45;8.57;;;3.42;;
52894;SDS011;38759;53.396;6.722;2023-08-20T00:32:11;5.80;;;2.97;;
52894;SDS011;38759;53.396;6.722;2023-08-20T00:34:37;9.60;;;2.80;;
52894;SDS011;38759;53.396;6.722;2023-08-20T00:37:03;9.45;;;3.40;;
52894;SDS011;38759;53.396;6.722;2023-08-20T00:39:29;11.15;;;2.90;;
52894;SDS011;38759;53.396;6.722;2023-08-20T00:41:55;8.73;;;2.88;;
52894;SDS011;38759;53.396;6.722;2023-08-20T00:44:20;10.77;;;3.50;;
52894;SDS011;38759;53.396;6.722;2023-08-20T00:46:46;9.80;;;4.47;;
52894;SDS011;38759;53.396;6.722;2023-08-20T00:49:12;9.82;;;3.20;;
52894;SDS011;38759;53.396;6.722;2023-08-20T00:51:38;9.23;;;3.17;;
52894;SDS011;38759;53.396;6.722;2023-08-20T00:54:04;8.23;;;3.72;;
52894;SDS011;38759;53.396;6.722;2023-08-20T00:56:30;6.68;;;3.28;;
52894;SDS011;38759;53.396;6.722;2023-08-20T00:58:56;7.22;;;2.60;;
52894;SDS011;38759;53.396;6.722;2023-08-20T01:01:22;9.32;;;3.13;;
52894;SDS011;38759;53.396;6.722;2023-08-20T01:03:48;11.48;;;3.72;;
52894;SDS011;38759;53.396;6.722;2023-08-20T01:06:28;7.10;;;3.00;;
52894;SDS011;38759;53.396;6.722;2023-08-20T01:11:55;7.47;;;3.42;;
52894;SDS011;38759;53.396;6.722;2023-08-20T01:14:24;11.68;;;3.53;;
52894;SDS011;38759;53.396;6.722;2023-08-20T01:16:49;10.15;;;3.55;;
52894;SDS011;38759;53.396;6.722;2023-08-20T01:19:19;8.32;;;3.38;;
52894;SDS011;38759;53.396;6.722;2023-08-20T01:22:00;11.50;;;3.80;;
52894;SDS011;38759;53.396;6.722;2023-08-20T01:29:53;10.88;;;3.25;;
52894;SDS011;38759;53.396;6.722;2023-08-20T01:32:20;9.10;;;3.40;;
52894;SDS011;38759;53.396;6.722;2023-08-20T01:34:47;8.15;;;3.65;;
52894;SDS011;38759;53.396;6.722;2023-08-20T01:37:13;11.25;;;3.90;;
52894;SDS011;38759;53.396;6.722;2023-08-20T01:39:39;5.32;;;3.10;;
52894;SDS011;38759;53.396;6.722;2023-08-20T01:42:05;6.32;;;3.58;;
52894;SDS011;38759;53.396;6.722;2023-08-20T01:44:31;10.00;;;4.05;;
52894;SDS011;38759;53.396;6.722;2023-08-20T01:46:56;11.88;;;3.50;;
52894;SDS011;38759;53.396;6.722;2023-08-20T01:49:23;9.45;;;3.38;;
52894;SDS011;38759;53.396;6.722;2023-08-20T01:51:48;9.93;;;3.97;;
52894;SDS011;38759;53.396;6.722;2023-08-20T01:54:14;8.90;;;3.40;;
52894;SDS011;38759;53.396;6.722;2023-08-20T01:56:40;10.73;;;3.00;;
52894;SDS011;38759;53.396;6.722;2023-08-20T01:59:05;11.77;;;3.25;;
52894;SDS011;38759;53.396;6.722;2023-08-20T02:01:31;7.97;;;2.83;;
52894;SDS011;38759;53.396;6.722;2023-08-20T02:03:57;12.00;;;2.50;;
52894;SDS011;38759;53.396;6.722;2023-08-20T02:06:22;4.47;;;2.88;;
52894;SDS011;38759;53.396;6.722;2023-08-20T02:08:48;14.35;;;3.05;;
52894;SDS011;38759;53.396;6.722;2023-08-20T02:11:14;13.02;;;3.70;;
52894;SDS011;38759;53.396;6.722;2023-08-20T02:13:39;10.10;;;3.50;;
52894;SDS011;38759;53.396;6.722;2023-08-20T02:16:05;8.60;;;3.60;;
52894;SDS011;38759;53.396;6.722;2023-08-20T02:18:32;8.38;;;3.28;;
52894;SDS011;38759;53.396;6.722;2023-08-20T02:20:57;7.93;;;3.20;;
52894;SDS011;38759;53.396;6.722;2023-08-20T02:23:23;7.05;;;3.35;;
52894;SDS011;38759;53.396;6.722;2023-08-20T02:25:49;8.25;;;3.40;;
52894;SDS011;38759;53.396;6.722;2023-08-20T02:28:15;8.57;;;3.13;;
52894;SDS011;38759;53.396;6.722;2023-08-20T02:30:44;7.20;;;3.38;;
52894;SDS011;38759;53.396;6.722;2023-08-20T02:33:11;7.38;;;3.55;;
52894;SDS011;38759;53.396;6.722;2023-08-20T02:35:37;7.68;;;3.95;;
52894;SDS011;38759;53.396;6.722;2023-08-20T02:38:04;11.73;;;3.90;;
52894;SDS011;38759;53.396;6.722;2023-08-20T02:40:30;13.43;;;4.60;;
52894;SDS011;38759;53.396;6.722;2023-08-20T02:42:56;9.20;;;4.03;;
52894;SDS011;38759;53.396;6.722;2023-08-20T02:45:22;7.30;;;4.05;;
52894;SDS011;38759;53.396;6.722;2023-08-20T02:47:48;8.95;;;3.88;;
52894;SDS011;38759;53.396;6.722;2023-08-20T02:50:14;9.93;;;4.00;;
52894;SDS011;38759;53.396;6.722;2023-08-20T02:52:41;13.13;;;4.40;;
52894;SDS011;38759;53.396;6.722;2023-08-20T02:55:07;9.60;;;3.80;;
52894;SDS011;38759;53.396;6.722;2023-08-20T02:57:33;6.82;;;3.78;;
52894;SDS011;38759;53.396;6.722;2023-08-20T02:59:59;12.63;;;3.80;;
52894;SDS011;38759;53.396;6.722;2023-08-20T03:02:25;5.85;;;3.45;;
52894;SDS011;38759;53.396;6.722;2023-08-20T03:04:50;10.32;;;3.40;;
52894;SDS011;38759;53.396;6.722;2023-08-20T03:07:16;11.95;;;3.72;;
52894;SDS011;38759;53.396;6.722;2023-08-20T03:09:42;7.68;;;3.58;;
52894;SDS011;38759;53.396;6.722;2023-08-20T03:12:07;12.35;;;3.95;;
52894;SDS011;38759;53.396;6.722;2023-08-20T03:14:33;12.50;;;3.47;;
52894;SDS011;38759;53.396;6.722;2023-08-20T03:16:59;8.18;;;3.50;;
52894;SDS011;38759;53.396;6.722;2023-08-20T03:19:24;6.15;;;3.38;;
52894;SDS011;38759;53.396;6.722;2023-08-20T03:21:50;10.98;;;3.63;;
52894;SDS011;38759;53.396;6.722;2023-08-20T03:24:16;7.47;;;3.63;;
52894;SDS011;38759;53.396;6.722;2023-08-20T03:26:41;10.85;;;3.80;;
52894;SDS011;38759;53.396;6.722;2023-08-20T03:29:07;12.45;;;3.78;;
52894;SDS011;38759;53.396;6.722;2023-08-20T03:31:32;11.30;;;3.55;;
52894;SDS011;38759;53.396;6.722;2023-08-20T03:33:58;13.48;;;3.70;;
52894;SDS011;38759;53.396;6.722;2023-08-20T03:36:24;10.10;;;3.97;;
52894;SDS011;38759;53.396;6.722;2023-08-20T03:38:49;9.05;;;3.97;;
52894;SDS011;38759;53.396;6.722;2023-08-20T03:41:15;10.23;;;3.92;;
52894;SDS011;38759;53.396;6.722;2023-08-20T03:43:42;17.05;;;4.13;;
52894;SDS011;38759;53.396;6.722;2023-08-20T03:46:07;7.97;;;3.20;;
52894;SDS011;38759;53.396;6.722;2023-08-20T03:48:33;11.27;;;3.70;;
52894;SDS011;38759;53.396;6.722;2023-08-20T03:50:59;7.28;;;3.47;;
52894;SDS011;38759;53.396;6.722;2023-08-20T03:53:24;9.10;;;3.88;;
52894;SDS011;38759;53.396;6.722;2023-08-20T03:55:50;11.68;;;4.80;;
52894;SDS011;38759;53.396;6.722;2023-08-20T03:58:16;17.40;;;4.53;;
52894;SDS011;38759;53.396;6.722;2023-08-20T04:00:42;8.68;;;4.45;;
52894;SDS011;38759;53.396;6.722;2023-08-20T04:03:08;8.88;;;4.20;;
52894;SDS011;38759;53.396;6.722;2023-08-20T04:05:37;13.88;;;5.35;;
52894;SDS011;38759;53.396;6.722;2023-08-20T04:08:04;16.98;;;4.45;;
52894;SDS011;38759;53.396;6.722;2023-08-20T04:10:31;8.25;;;4.68;;
52894;SDS011;38759;53.396;6.722;2023-08-20T04:12:57;10.77;;;4.28;;
52894;SDS011;38759;53.396;6.722;2023-08-20T04:15:23;14.10;;;5.15;;
52894;SDS011;38759;53.396;6.722;2023-08-20T04:17:49;11.63;;;4.68;;
52894;SDS011;38759;53.396;6.722;2023-08-20T04:20:15;9.05;;;4.40;;
52894;SDS011;38759;53.396;6.722;2023-08-20T04:22:40;9.55;;;4.10;;
52894;SDS011;38759;53.396;6.722;2023-08-20T04:25:07;14.70;;;5.13;;
52894;SDS011;38759;53.396;6.722;2023-08-20T04:27:33;7.70;;;4.00;;
52894;SDS011;38759;53.396;6.722;2023-08-20T04:29:59;6.80;;;4.30;;
52894;SDS011;38759;53.396;6.722;2023-08-20T04:32:24;10.25;;;4.43;;
52894;SDS011;38759;53.396;6.722;2023-08-20T04:34:50;9.57;;;4.85;;
52894;SDS011;38759;53.396;6.722;2023-08-20T04:37:18;11.45;;;4.55;;
52894;SDS011;38759;53.396;6.722;2023-08-20T04:39:44;12.30;;;4.40;;
52894;SDS011;38759;53.396;6.722;2023-08-20T04:42:10;14.95;;;5.05;;
52894;SDS011;38759;53.396;6.722;2023-08-20T04:44:36;14.98;;;5.50;;
52894;SDS011;38759;53.396;6.722;2023-08-20T04:47:01;9.95;;;5.28;;
52894;SDS011;38759;53.396;6.722;2023-08-20T04:49:27;13.40;;;5.13;;
52894;SDS011;38759;53.396;6.722;2023-08-20T04:51:55;11.85;;;4.65;;
52894;SDS011;38759;53.396;6.722;2023-08-20T04:54:21;18.60;;;5.05;;
52894;SDS011;38759;53.396;6.722;2023-08-20T04:56:46;13.88;;;4.82;;
52894;SDS011;38759;53.396;6.722;2023-08-20T04:59:12;7.95;;;4.78;;
52894;SDS011;38759;53.396;6.722;2023-08-20T05:01:38;13.82;;;4.97;;
52894;SDS011;38759;53.396;6.722;2023-08-20T05:04:04;9.43;;;4.90;;
52894;SDS011;38759;53.396;6.722;2023-08-20T05:06:31;10.52;;;4.47;;
52894;SDS011;38759;53.396;6.722;2023-08-20T05:08:56;10.80;;;4.80;;
52894;SDS011;38759;53.396;6.722;2023-08-20T05:11:22;12.27;;;4.80;;
52894;SDS011;38759;53.396;6.722;2023-08-20T05:13:49;15.70;;;4.85;;
52894;SDS011;38759;53.396;6.722;2023-08-20T05:16:15;14.57;;;4.88;;
52894;SDS011;38759;53.396;6.722;2023-08-20T05:18:41;10.57;;;4.72;;
52894;SDS011;38759;53.396;6.722;2023-08-20T05:21:07;10.60;;;4.57;;
52894;SDS011;38759;53.396;6.722;2023-08-20T05:23:33;14.30;;;4.90;;
52894;SDS011;38759;53.396;6.722;2023-08-20T05:25:59;13.70;;;4.47;;
52894;SDS011;38759;53.396;6.722;2023-08-20T05:28:24;12.95;;;4.60;;
52894;SDS011;38759;53.396;6.722;2023-08-20T05:30:54;19.55;;;4.93;;
52894;SDS011;38759;53.396;6.722;2023-08-20T05:33:21;15.00;;;4.68;;
52894;SDS011;38759;53.396;6.722;2023-08-20T05:35:47;12.15;;;5.13;;
52894;SDS011;38759;53.396;6.722;2023-08-20T05:38:13;8.85;;;4.00;;
52894;SDS011;38759;53.396;6.722;2023-08-20T05:40:38;19.73;;;4.70;;
52894;SDS011;38759;53.396;6.722;2023-08-20T05:43:04;15.77;;;5.30;;
52894;SDS011;38759;53.396;6.722;2023-08-20T05:45:30;11.43;;;4.18;;
52894;SDS011;38759;53.396;6.722;2023-08-20T05:47:55;14.85;;;4.70;;
52894;SDS011;38759;53.396;6.722;2023-08-20T05:50:21;12.05;;;5.25;;
52894;SDS011;38759;53.396;6.722;2023-08-20T05:52:47;13.82;;;4.60;;
52894;SDS011;38759;53.396;6.722;2023-08-20T05:55:13;18.95;;;4.82;;
52894;SDS011;38759;53.396;6.722;2023-08-20T05:57:39;8.65;;;4.22;;
52894;SDS011;38759;53.396;6.722;2023-08-20T06:00:07;10.20;;;4.45;;
52894;SDS011;38759;53.396;6.722;2023-08-20T06:02:33;11.27;;;5.03;;
52894;SDS011;38759;53.396;6.722;2023-08-20T06:04:59;11.18;;;4.35;;
52894;SDS011;38759;53.396;6.722;2023-08-20T06:07:24;13.77;;;5.18;;
52894;SDS011;38759;53.396;6.722;2023-08-20T06:09:50;12.45;;;5.18;;
52894;SDS011;38759;53.396;6.722;2023-08-20T06:12:16;11.50;;;5.00;;
52894;SDS011;38759;53.396;6.722;2023-08-20T06:14:42;13.27;;;4.20;;
52894;SDS011;38759;53.396;6.722;2023-08-20T06:17:08;14.23;;;4.72;;
52894;SDS011;38759;53.396;6.722;2023-08-20T06:19:33;16.52;;;4.90;;
52894;SDS011;38759;53.396;6.722;2023-08-20T06:21:59;9.57;;;4.63;;
52894;SDS011;38759;53.396;6.722;2023-08-20T06:24:25;13.13;;;5.65;;
52894;SDS011;38759;53.396;6.722;2023-08-20T06:26:51;18.58;;;6.65;;
52894;SDS011;38759;53.396;6.722;2023-08-20T06:29:17;19.77;;;5.38;;
52894;SDS011;38759;53.396;6.722;2023-08-20T06:31:43;11.85;;;5.10;;
52894;SDS011;38759;53.396;6.722;2023-08-20T06:34:09;20.77;;;5.00;;
52894;SDS011;38759;53.396;6.722;2023-08-20T06:36:35;15.95;;;5.25;;
52894;SDS011;38759;53.396;6.722;2023-08-20T06:39:00;10.13;;;4.32;;
52894;SDS011;38759;53.396;6.722;2023-08-20T06:41:26;19.17;;;5.30;;
52894;SDS011;38759;53.396;6.722;2023-08-20T06:43:52;13.30;;;5.18;;
52894;SDS011;38759;53.396;6.722;2023-08-20T06:46:18;16.52;;;5.30;;
52894;SDS011;38759;53.396;6.722;2023-08-20T06:48:43;16.83;;;5.60;;
52894;SDS011;38759;53.396;6.722;2023-08-20T06:51:13;19.90;;;5.00;;
52894;SDS011;38759;53.396;6.722;2023-08-20T06:53:40;17.50;;;5.50;;
52894;SDS011;38759;53.396;6.722;2023-08-20T06:56:07;21.17;;;5.65;;
52894;SDS011;38759;53.396;6.722;2023-08-20T06:58:33;23.20;;;5.38;;
52894;SDS011;38759;53.396;6.722;2023-08-20T07:00:59;17.92;;;4.85;;
52894;SDS011;38759;53.396;6.722;2023-08-20T07:03:36;18.85;;;4.75;;
52894;SDS011;38759;53.396;6.722;2023-08-20T07:06:03;10.95;;;4.82;;
52894;SDS011;38759;53.396;6.722;2023-08-20T07:08:29;17.20;;;4.55;;
52894;SDS011;38759;53.396;6.722;2023-08-20T07:10:55;16.75;;;4.78;;
52894;SDS011;38759;53.396;6.722;2023-08-20T07:13:21;17.00;;;4.95;;
52894;SDS011;38759;53.396;6.722;2023-08-20T07:15:47;13.55;;;4.47;;
52894;SDS011;38759;53.396;6.722;2023-08-20T07:18:13;17.58;;;4.20;;
52894;SDS011;38759;53.396;6.722;2023-08-20T07:20:40;10.73;;;4.32;;
52894;SDS011;38759;53.396;6.722;2023-08-20T07:23:09;20.55;;;4.25;;
52894;SDS011;38759;53.396;6.722;2023-08-20T07:25:36;11.48;;;4.30;;
52894;SDS011;38759;53.396;6.722;2023-08-20T07:28:03;17.40;;;5.53;;
52894;SDS011;38759;53.396;6.722;2023-08-20T07:30:30;21.02;;;5.15;;
52894;SDS011;38759;53.396;6.722;2023-08-20T07:32:55;21.15;;;4.93;;
52894;SDS011;38759;53.396;6.722;2023-08-20T07:35:21;15.23;;;4.60;;
52894;SDS011;38759;53.396;6.722;2023-08-20T07:37:47;15.63;;;5.13;;
52894;SDS011;38759;53.396;6.722;2023-08-20T07:40:12;20.40;;;5.07;;
52894;SDS011;38759;53.396;6.722;2023-08-20T07:42:39;17.77;;;5.35;;
52894;SDS011;38759;53.396;6.722;2023-08-20T07:45:06;13.38;;;4.40;;
52894;SDS011;38759;53.396;6.722;2023-08-20T07:47:33;18.85;;;4.40;;
52894;SDS011;38759;53.396;6.722;2023-08-20T07:49:59;13.40;;;4.50;;
52894;SDS011;38759;53.396;6.722;2023-08-20T07:52:25;15.68;;;4.70;;
52894;SDS011;38759;53.396;6.722;2023-08-20T07:54:50;23.35;;;4.70;;
52894;SDS011;38759;53.396;6.722;2023-08-20T07:57:16;19.13;;;4.13;;
52894;SDS011;38759;53.396;6.722;2023-08-20T07:59:41;14.25;;;4.10;;
52894;SDS011;38759;53.396;6.722;2023-08-20T08:02:07;12.88;;;3.10;;
52894;SDS011;38759;53.396;6.722;2023-08-20T08:04:33;11.35;;;3.22;;
52894;SDS011;38759;53.396;6.722;2023-08-20T08:06:59;13.60;;;3.45;;
52894;SDS011;38759;53.396;6.722;2023-08-20T08:09:26;13.73;;;3.92;;
52894;SDS011;38759;53.396;6.722;2023-08-20T08:11:53;9.77;;;3.40;;
52894;SDS011;38759;53.396;6.722;2023-08-20T08:14:19;16.20;;;2.95;;
52894;SDS011;38759;53.396;6.722;2023-08-20T08:16:45;14.98;;;3.63;;
52894;SDS011;38759;53.396;6.722;2023-08-20T08:19:11;14.00;;;3.67;;
52894;SDS011;38759;53.396;6.722;2023-08-20T08:21:37;16.23;;;4.13;;
52894;SDS011;38759;53.396;6.722;2023-08-20T08:24:03;14.32;;;3.20;;
52894;SDS011;38759;53.396;6.722;2023-08-20T08:26:30;13.10;;;3.22;;
52894;SDS011;38759;53.396;6.722;2023-08-20T08:28:56;8.68;;;3.17;;
52894;SDS011;38759;53.396;6.722;2023-08-20T08:31:22;16.60;;;3.13;;
52894;SDS011;38759;53.396;6.722;2023-08-20T08:33:48;16.15;;;3.40;;
52894;SDS011;38759;53.396;6.722;2023-08-20T08:36:14;17.58;;;3.22;;
52894;SDS011;38759;53.396;6.722;2023-08-20T08:38:42;11.05;;;3.10;;
52894;SDS011;38759;53.396;6.722;2023-08-20T08:41:09;13.45;;;2.97;;
52894;SDS011;38759;53.396;6.722;2023-08-20T08:43:37;16.55;;;3.80;;
52894;SDS011;38759;53.396;6.722;2023-08-20T08:46:07;13.32;;;2.80;;
52894;SDS011;38759;53.396;6.722;2023-08-20T08:48:39;14.60;;;3.13;;
52894;SDS011;38759;53.396;6.722;2023-08-20T08:51:07;13.75;;;3.13;;
52894;SDS011;38759;53.396;6.722;2023-08-20T08:53:33;12.60;;;3.00;;
52894;SDS011;38759;53.396;6.722;2023-08-20T08:55:59;14.63;;;3.33;;
52894;SDS011;38759;53.396;6.722;2023-08-20T08:58:25;11.48;;;3.10;;
52894;SDS011;38759;53.396;6.722;2023-08-20T09:00:51;14.23;;;2.85;;
52894;SDS011;38759;53.396;6.722;2023-08-20T09:03:18;13.68;;;3.03;;
52894;SDS011;38759;53.396;6.722;2023-08-20T09:08:22;11.07;;;2.13;;
52894;SDS011;38759;53.396;6.722;2023-08-20T09:10:52;16.25;;;3.10;;
52894;SDS011;38759;53.396;6.722;2023-08-20T09:13:23;16.25;;;3.33;;
52894;SDS011;38759;53.396;6.722;2023-08-20T09:15:53;13.27;;;3.20;;
52894;SDS011;38759;53.396;6.722;2023-08-20T09:18:19;7.47;;;2.28;;
52894;SDS011;38759;53.396;6.722;2023-08-20T09:20:46;14.18;;;2.72;;
52894;SDS011;38759;53.396;6.722;2023-08-20T09:23:14;12.55;;;2.78;;
52894;SDS011;38759;53.396;6.722;2023-08-20T09:25:39;10.70;;;1.92;;
52894;SDS011;38759;53.396;6.722;2023-08-20T09:28:06;10.32;;;2.08;;
52894;SDS011;38759;53.396;6.722;2023-08-20T09:30:31;9.65;;;1.77;;
52894;SDS011;38759;53.396;6.722;2023-08-20T09:35:30;17.08;;;2.88;;
52894;SDS011;38759;53.396;6.722;2023-08-20T09:37:59;11.77;;;2.28;;
52894;SDS011;38759;53.396;6.722;2023-08-20T09:40:26;11.48;;;2.10;;
52894;SDS011;38759;53.396;6.722;2023-08-20T09:42:53;12.05;;;2.63;;
52894;SDS011;38759;53.396;6.722;2023-08-20T09:45:20;10.68;;;2.28;;
52894;SDS011;38759;53.396;6.722;2023-08-20T09:47:46;8.73;;;1.92;;
52894;SDS011;38759;53.396;6.722;2023-08-20T09:50:14;12.73;;;2.28;;
52894;SDS011;38759;53.396;6.722;2023-08-20T09:52:55;12.80;;;2.30;;
52894;SDS011;38759;53.396;6.722;2023-08-20T09:55:27;18.15;;;2.70;;
52894;SDS011;38759;53.396;6.722;2023-08-20T09:57:57;7.28;;;1.90;;
52894;SDS011;38759;53.396;6.722;2023-08-20T10:00:25;10.38;;;2.00;;
52894;SDS011;38759;53.396;6.722;2023-08-20T10:02:52;9.30;;;1.67;;
52894;SDS011;38759;53.396;6.722;2023-08-20T10:05:18;12.10;;;2.10;;
52894;SDS011;38759;53.396;6.722;2023-08-20T10:07:46;6.82;;;1.90;;
52894;SDS011;38759;53.396;6.722;2023-08-20T10:10:12;10.77;;;2.15;;
52894;SDS011;38759;53.396;6.722;2023-08-20T10:12:38;6.65;;;2.13;;
52894;SDS011;38759;53.396;6.722;2023-08-20T10:15:07;6.65;;;1.50;;
52894;SDS011;38759;53.396;6.722;2023-08-20T10:17:35;9.75;;;1.88;;
52894;SDS011;38759;53.396;6.722;2023-08-20T10:20:03;9.38;;;2.42;;
52894;SDS011;38759;53.396;6.722;2023-08-20T10:22:37;13.25;;;2.83;;
52894;SDS011;38759;53.396;6.722;2023-08-20T10:25:07;13.07;;;1.92;;
52894;SDS011;38759;53.396;6.722;2023-08-20T10:27:35;8.55;;;1.83;;
52894;SDS011;38759;53.396;6.722;2023-08-20T10:30:09;6.30;;;1.58;;
52894;SDS011;38759;53.396;6.722;2023-08-20T10:32:50;6.80;;;2.03;;
52894;SDS011;38759;53.396;6.722;2023-08-20T10:38:00;8.10;;;1.80;;
52894;SDS011;38759;53.396;6.722;2023-08-20T10:44:08;9.30;;;2.10;;
52894;SDS011;38759;53.396;6.722;2023-08-20T10:48:40;13.50;;;2.95;;
52894;SDS011;38759;53.396;6.722;2023-08-20T10:51:16;8.32;;;2.10;;
52894;SDS011;38759;53.396;6.722;2023-08-20T10:59:07;9.20;;;2.13;;
52894;SDS011;38759;53.396;6.722;2023-08-20T11:01:33;10.85;;;2.13;;
52894;SDS011;38759;53.396;6.722;2023-08-20T11:04:00;7.88;;;1.92;;
52894;SDS011;38759;53.396;6.722;2023-08-20T11:06:33;6.05;;;1.42;;
52894;SDS011;38759;53.396;6.722;2023-08-20T11:08:59;8.82;;;2.22;;
52894;SDS011;38759;53.396;6.722;2023-08-20T11:11:25;7.00;;;1.48;;
52894;SDS011;38759;53.396;6.722;2023-08-20T11:13:50;7.45;;;1.45;;
52894;SDS011;38759;53.396;6.722;2023-08-20T11:16:16;8.48;;;1.42;;
52894;SDS011;38759;53.396;6.722;2023-08-20T11:18:42;11.32;;;1.35;;
52894;SDS011;38759;53.396;6.722;2023-08-20T11:21:08;6.50;;;1.60;;
52894;SDS011;38759;53.396;6.722;2023-08-20T11:23:34;4.75;;;1.35;;
52894;SDS011;38759;53.396;6.722;2023-08-20T11:26:00;6.25;;;1.40;;
52894;SDS011;38759;53.396;6.722;2023-08-20T11:28:27;9.93;;;1.90;;
52894;SDS011;38759;53.396;6.722;2023-08-20T11:30:53;8.82;;;1.73;;
52894;SDS011;38759;53.396;6.722;2023-08-20T11:33:21;5.80;;;1.42;;
52894;SDS011;38759;53.396;6.722;2023-08-20T11:35:47;8.88;;;1.92;;
52894;SDS011;38759;53.396;6.722;2023-08-20T11:38:14;5.47;;;1.40;;
52894;SDS011;38759;53.396;6.722;2023-08-20T11:40:40;5.85;;;1.55;;
52894;SDS011;38759;53.396;6.722;2023-08-20T11:43:06;8.35;;;1.58;;
52894;SDS011;38759;53.396;6.722;2023-08-20T11:45:32;8.43;;;1.52;;
52894;SDS011;38759;53.396;6.722;2023-08-20T11:48:08;6.85;;;1.52;;
52894;SDS011;38759;53.396;6.722;2023-08-20T11:50:34;6.15;;;1.48;;
52894;SDS011;38759;53.396;6.722;2023-08-20T11:53:02;6.38;;;1.52;;
52894;SDS011;38759;53.396;6.722;2023-08-20T11:55:29;5.68;;;1.10;;
52894;SDS011;38759;53.396;6.722;2023-08-20T11:57:57;4.97;;;1.30;;
52894;SDS011;38759;53.396;6.722;2023-08-20T12:00:26;5.68;;;1.38;;
52894;SDS011;38759;53.396;6.722;2023-08-20T12:02:53;8.48;;;1.83;;
52894;SDS011;38759;53.396;6.722;2023-08-20T12:05:26;6.75;;;1.48;;
52894;SDS011;38759;53.396;6.722;2023-08-20T12:10:26;5.53;;;1.70;;
52894;SDS011;38759;53.396;6.722;2023-08-20T12:12:53;8.85;;;1.90;;
52894;SDS011;38759;53.396;6.722;2023-08-20T12:15:20;8.95;;;1.80;;
52894;SDS011;38759;53.396;6.722;2023-08-20T12:20:26;10.52;;;1.92;;
52894;SDS011;38759;53.396;6.722;2023-08-20T12:22:54;5.50;;;1.40;;
52894;SDS011;38759;53.396;6.722;2023-08-20T12:25:19;6.55;;;1.50;;
52894;SDS011;38759;53.396;6.722;2023-08-20T12:27:45;9.93;;;2.03;;
52894;SDS011;38759;53.396;6.722;2023-08-20T12:30:11;15.65;;;2.80;;
52894;SDS011;38759;53.396;6.722;2023-08-20T12:32:37;10.32;;;2.47;;
52894;SDS011;38759;53.396;6.722;2023-08-20T12:35:03;11.30;;;2.72;;
52894;SDS011;38759;53.396;6.722;2023-08-20T12:37:29;14.38;;;2.42;;
52894;SDS011;38759;53.396;6.722;2023-08-20T12:39:54;14.77;;;3.03;;
52894;SDS011;38759;53.396;6.722;2023-08-20T12:42:20;11.05;;;2.92;;
52894;SDS011;38759;53.396;6.722;2023-08-20T12:44:45;14.85;;;2.90;;
52894;SDS011;38759;53.396;6.722;2023-08-20T12:47:11;17.73;;;3.53;;
52894;SDS011;38759;53.396;6.722;2023-08-20T12:49:37;16.63;;;3.70;;
52894;SDS011;38759;53.396;6.722;2023-08-20T12:52:02;15.10;;;3.00;;
52894;SDS011;38759;53.396;6.722;2023-08-20T12:54:28;14.13;;;3.03;;
52894;SDS011;38759;53.396;6.722;2023-08-20T12:56:54;14.82;;;3.20;;
52894;SDS011;38759;53.396;6.722;2023-08-20T12:59:20;13.98;;;3.00;;
52894;SDS011;38759;53.396;6.722;2023-08-20T13:01:45;12.10;;;2.80;;
52894;SDS011;38759;53.396;6.722;2023-08-20T13:04:12;15.40;;;3.40;;
52894;SDS011;38759;53.396;6.722;2023-08-20T13:06:38;12.07;;;2.47;;
52894;SDS011;38759;53.396;6.722;2023-08-20T13:09:04;15.13;;;2.58;;
52894;SDS011;38759;53.396;6.722;2023-08-20T13:11:32;11.45;;;2.20;;
52894;SDS011;38759;53.396;6.722;2023-08-20T13:13:58;17.15;;;2.65;;
52894;SDS011;38759;53.396;6.722;2023-08-20T13:16:24;12.50;;;2.30;;
52894;SDS011;38759;53.396;6.722;2023-08-20T13:18:50;12.77;;;1.92;;
52894;SDS011;38759;53.396;6.722;2023-08-20T13:21:15;11.07;;;2.35;;
52894;SDS011;38759;53.396;6.722;2023-08-20T13:23:41;13.15;;;2.70;;
52894;SDS011;38759;53.396;6.722;2023-08-20T13:26:07;10.73;;;2.22;;
52894;SDS011;38759;53.396;6.722;2023-08-20T13:28:32;12.80;;;2.30;;
52894;SDS011;38759;53.396;6.722;2023-08-20T13:30:58;14.75;;;2.55;;
52894;SDS011;38759;53.396;6.722;2023-08-20T13:33:24;12.25;;;2.30;;
52894;SDS011;38759;53.396;6.722;2023-08-20T13:35:49;12.35;;;1.95;;
52894;SDS011;38759;53.396;6.722;2023-08-20T13:38:17;9.25;;;1.90;;
52894;SDS011;38759;53.396;6.722;2023-08-20T13:40:44;13.93;;;2.47;;
52894;SDS011;38759;53.396;6.722;2023-08-20T13:43:10;8.88;;;1.75;;
52894;SDS011;38759;53.396;6.722;2023-08-20T13:45:35;13.95;;;2.13;;
52894;SDS011;38759;53.396;6.722;2023-08-20T13:48:01;8.18;;;2.00;;
52894;SDS011;38759;53.396;6.722;2023-08-20T13:50:27;11.55;;;1.88;;
52894;SDS011;38759;53.396;6.722;2023-08-20T13:52:53;15.50;;;2.33;;
52894;SDS011;38759;53.396;6.722;2023-08-20T13:55:18;16.27;;;2.63;;
52894;SDS011;38759;53.396;6.722;2023-08-20T13:57:44;10.27;;;2.47;;
52894;SDS011;38759;53.396;6.722;2023-08-20T14:00:10;15.32;;;3.42;;
52894;SDS011;38759;53.396;6.722;2023-08-20T14:02:38;14.48;;;3.08;;
52894;SDS011;38759;53.396;6.722;2023-08-20T14:05:04;17.60;;;3.70;;
52894;SDS011;38759;53.396;6.722;2023-08-20T14:07:30;10.88;;;2.78;;
52894;SDS011;38759;53.396;6.722;2023-08-20T14:09:57;9.57;;;2.85;;
52894;SDS011;38759;53.396;6.722;2023-08-20T14:12:24;10.90;;;2.85;;
52894;SDS011;38759;53.396;6.722;2023-08-20T14:14:49;15.70;;;3.08;;
52894;SDS011;38759;53.396;6.722;2023-08-20T14:17:15;9.85;;;2.03;;
52894;SDS011;38759;53.396;6.722;2023-08-20T14:19:41;11.27;;;2.40;;
52894;SDS011;38759;53.396;6.722;2023-08-20T14:22:06;10.13;;;2.20;;
52894;SDS011;38759;53.396;6.722;2023-08-20T14:24:32;9.55;;;2.33;;
52894;SDS011;38759;53.396;6.722;2023-08-20T14:26:58;10.77;;;2.08;;
52894;SDS011;38759;53.396;6.722;2023-08-20T14:29:23;12.50;;;2.00;;
52894;SDS011;38759;53.396;6.722;2023-08-20T14:31:49;13.15;;;2.55;;
52894;SDS011;38759;53.396;6.722;2023-08-20T14:34:15;12.25;;;2.40;;
52894;SDS011;38759;53.396;6.722;2023-08-20T14:36:40;13.50;;;3.00;;
52894;SDS011;38759;53.396;6.722;2023-08-20T14:39:06;10.10;;;2.13;;
52894;SDS011;38759;53.396;6.722;2023-08-20T14:41:32;14.20;;;2.55;;
52894;SDS011;38759;53.396;6.722;2023-08-20T14:43:59;15.98;;;2.42;;
52894;SDS011;38759;53.396;6.722;2023-08-20T14:46:24;16.27;;;3.15;;
52894;SDS011;38759;53.396;6.722;2023-08-20T14:48:50;13.15;;;3.03;;
52894;SDS011;38759;53.396;6.722;2023-08-20T14:51:15;8.70;;;2.25;;
52894;SDS011;38759;53.396;6.722;2023-08-20T14:53:41;14.65;;;2.95;;
52894;SDS011;38759;53.396;6.722;2023-08-20T14:56:07;14.32;;;3.35;;
52894;SDS011;38759;53.396;6.722;2023-08-20T14:58:33;15.18;;;3.08;;
52894;SDS011;38759;53.396;6.722;2023-08-20T15:00:58;13.73;;;2.60;;
52894;SDS011;38759;53.396;6.722;2023-08-20T15:03:25;11.73;;;2.15;;
52894;SDS011;38759;53.396;6.722;2023-08-20T15:05:51;14.88;;;2.90;;
52894;SDS011;38759;53.396;6.722;2023-08-20T15:08:17;12.95;;;2.72;;
52894;SDS011;38759;53.396;6.722;2023-08-20T15:10:42;13.60;;;2.47;;